Time;durP1;ratioP1;P1;durP2;ratioP2;P2;SDS_P1;SDS_P2;PMS_P1;PMS_P2;Temp;Humidity;BMP_temperature;BMP_pressure;BME280_temperature;BME280_humidity;BME280_pressure;Samples;Min_cycle;Max_cycle;Signal;HPM_P1;HPM_P2
2022/10/23 00:00:41;;;;;;;;;;;11.90;81.30;;;;;;5068049;28;19920;-77
2022/10/23 00:03:06;;;;;;;;;;;11.90;81.30;;;;;;5055559;28;19920;-78
2022/10/23 00:05:32;;;;;;;;;;;11.90;81.30;;;;;;5063494;28;19923;-77
2022/10/23 00:07:58;;;;;;;;;;;11.90;81.40;;;;;;5082646;28;19916;-76
2022/10/23 00:10:24;;;;;;;;;;;11.90;81.40;;;;;;5066180;28;19923;-77
2022/10/23 00:12:49;;;;;;;;;;;11.90;81.40;;;;;;5068917;28;19966;-77
2022/10/23 00:15:16;;;;;;;;;;;11.90;81.40;;;;;;5073270;28;19928;-77
2022/10/23 00:17:41;;;;;;;;;;;11.90;81.50;;;;;;5069145;28;19934;-77
2022/10/23 00:20:07;;;;;;;;;;;11.90;81.50;;;;;;5055342;28;20555;-77
2022/10/23 00:22:33;;;;;;;;;;;11.90;81.50;;;;;;5069681;28;19920;-77
2022/10/23 00:24:58;;;;;;;;;;;11.90;81.50;;;;;;5083817;28;19968;-77
2022/10/23 00:27:24;;;;;;;;;;;11.90;81.50;;;;;;5085180;28;19976;-78
2022/10/23 00:29:51;;;;;;;;;;;11.90;81.50;;;;;;5069232;28;20068;-77
2022/10/23 00:32:17;;;;;;;;;;;11.80;81.40;;;;;;5079282;28;19989;-77
2022/10/23 00:34:42;;;;;;;;;;;11.90;81.50;;;;;;5067422;28;20407;-77
2022/10/23 00:37:08;;;;;;;;;;;11.80;81.40;;;;;;5070220;28;19932;-77
2022/10/23 00:39:33;;;;;;;;;;;11.80;81.40;;;;;;5068523;28;19920;-77
2022/10/23 00:41:59;;;;;;;;;;;11.80;81.50;;;;;;5081585;28;20019;-77
2022/10/23 00:44:27;;;;;;;;;;;11.80;81.50;;;;;;5069870;28;19920;-77
2022/10/23 00:46:53;;;;;;;;;;;11.80;81.50;;;;;;5085652;28;19928;-77
2022/10/23 00:49:19;;;;;;;;;;;11.80;81.50;;;;;;5065669;28;20113;-77
2022/10/23 00:51:51;;;;;;;;;;;11.80;81.60;;;;;;5068844;28;20450;-77
2022/10/23 00:54:18;;;;;;;;;;;11.80;81.50;;;;;;5083504;28;19924;-77
2022/10/23 00:56:43;;;;;;;;;;;11.80;81.60;;;;;;5065629;28;19966;-76
2022/10/23 00:59:09;;;;;;;;;;;11.80;81.60;;;;;;5081231;28;19919;-77
2022/10/23 01:01:34;;;;;;;;;;;11.80;81.60;;;;;;5084138;28;20740;-77
2022/10/23 01:04:00;;;;;;;;;;;11.80;81.60;;;;;;5065202;28;19978;-76
2022/10/23 01:06:29;;;;;;;;;;;11.80;81.60;;;;;;5084348;28;19997;-77
2022/10/23 01:09:09;;;;;;;;;;;11.80;81.60;;;;;;5064478;28;19972;-76
2022/10/23 01:11:38;;;;;;;;;;;11.80;81.60;;;;;;5083155;28;19917;-78
2022/10/23 01:14:14;;;;;;;;;;;11.80;81.60;;;;;;5082803;28;19945;-77
2022/10/23 01:16:41;;;;;;;;;;;11.80;81.60;;;;;;5060753;28;19924;-77
2022/10/23 01:19:19;;;;;;;;;;;11.80;81.60;;;;;;5074310;28;20335;-77
2022/10/23 01:21:47;;;;;;;;;;;11.80;81.60;;;;;;5061031;28;19928;-77
2022/10/23 01:24:20;;;;;;;;;;;11.80;81.60;;;;;;5081419;28;19920;-77
2022/10/23 01:26:45;;;;;;;;;;;11.80;81.60;;;;;;5068261;28;19916;-77
2022/10/23 01:29:18;;;;;;;;;;;11.80;81.60;;;;;;5077008;28;19916;-77
2022/10/23 01:31:46;;;;;;;;;;;11.80;81.60;;;;;;5077862;28;19920;-77
2022/10/23 01:34:13;;;;;;;;;;;11.80;81.70;;;;;;5064480;28;20408;-76
2022/10/23 01:36:39;;;;;;;;;;;11.80;81.60;;;;;;5075750;28;19924;-77
2022/10/23 01:39:09;;;;;;;;;;;11.80;81.70;;;;;;5048420;28;19920;-78
2022/10/23 01:41:43;;;;;;;;;;;11.70;81.60;;;;;;5038541;28;19923;-77
2022/10/23 01:44:09;;;;;;;;;;;11.80;81.60;;;;;;5081406;28;19923;-76
2022/10/23 01:46:36;;;;;;;;;;;11.80;81.60;;;;;;5068480;28;19920;-77
2022/10/23 01:49:02;;;;;;;;;;;11.80;81.70;;;;;;5065419;28;19926;-77
2022/10/23 01:51:28;;;;;;;;;;;11.80;81.70;;;;;;5075824;28;19923;-77
2022/10/23 01:53:54;;;;;;;;;;;11.80;81.70;;;;;;5064730;28;19925;-76
2022/10/23 01:56:25;;;;;;;;;;;11.80;81.70;;;;;;5080090;28;19929;-77
2022/10/23 01:58:51;;;;;;;;;;;11.80;81.70;;;;;;5068718;28;19955;-77
2022/10/23 02:01:17;;;;;;;;;;;11.80;81.70;;;;;;5082861;28;20028;-77
2022/10/23 02:03:42;;;;;;;;;;;11.80;81.70;;;;;;5068034;28;20377;-77
2022/10/23 02:06:08;;;;;;;;;;;11.80;81.70;;;;;;5065703;28;20423;-77
2022/10/23 02:08:33;;;;;;;;;;;11.80;81.70;;;;;;5082915;28;19924;-77
2022/10/23 02:11:02;;;;;;;;;;;11.80;81.70;;;;;;5045826;28;20400;-77
2022/10/23 02:13:43;;;;;;;;;;;11.80;81.70;;;;;;5082331;28;19924;-77
2022/10/23 02:16:14;;;;;;;;;;;11.80;81.70;;;;;;5069318;28;19924;-78
2022/10/23 02:18:40;;;;;;;;;;;11.80;81.60;;;;;;5077913;28;20647;-76
2022/10/23 02:21:09;;;;;;;;;;;11.80;81.60;;;;;;5066711;28;19924;-77
2022/10/23 02:23:41;;;;;;;;;;;11.80;81.70;;;;;;5077521;28;19948;-77
2022/10/23 02:26:17;;;;;;;;;;;11.80;81.60;;;;;;5062040;28;20403;-77
2022/10/23 02:28:44;;;;;;;;;;;11.80;81.70;;;;;;5066618;28;19920;-77
2022/10/23 02:31:11;;;;;;;;;;;11.80;81.70;;;;;;5085532;28;19937;-77
2022/10/23 02:33:37;;;;;;;;;;;11.80;81.70;;;;;;5076450;28;19917;-76
2022/10/23 02:36:02;;;;;;;;;;;11.80;81.70;;;;;;5064483;28;20069;-77
2022/10/23 02:38:32;;;;;;;;;;;11.70;81.60;;;;;;5049177;28;19917;-77
2022/10/23 02:41:04;;;;;;;;;;;11.80;81.70;;;;;;5065919;28;19924;-77
2022/10/23 02:43:32;;;;;;;;;;;11.80;82.50;;;;;;5065910;28;19916;-77
2022/10/23 02:46:06;;;;;;;;;;;11.80;81.70;;;;;;5080945;28;19963;-76
2022/10/23 02:48:38;;;;;;;;;;;11.70;81.60;;;;;;5061217;28;19931;-77
2022/10/23 02:51:06;;;;;;;;;;;11.80;81.70;;;;;;5050786;28;19920;-78
2022/10/23 02:53:36;;;;;;;;;;;11.80;81.70;;;;;;5079796;28;20400;-77
2022/10/23 02:56:07;;;;;;;;;;;11.80;81.70;;;;;;5064435;28;19920;-78
2022/10/23 02:58:36;;;;;;;;;;;11.80;81.70;;;;;;5080968;28;19924;-77
2022/10/23 03:01:05;;;;;;;;;;;11.80;81.70;;;;;;5064295;28;19965;-77
2022/10/23 03:03:31;;;;;;;;;;;11.70;81.70;;;;;;5081123;28;19987;-77
2022/10/23 03:05:57;;;;;;;;;;;11.70;81.70;;;;;;5051968;28;20300;-76
2022/10/23 03:08:23;;;;;;;;;;;11.70;81.60;;;;;;5088603;28;19931;-77
2022/10/23 03:10:50;;;;;;;;;;;11.80;81.70;;;;;;5064967;28;19978;-77
2022/10/23 03:13:15;;;;;;;;;;;11.70;81.70;;;;;;5067827;28;20054;-78
2022/10/23 03:15:41;;;;;;;;;;;11.80;81.70;;;;;;5082848;28;19990;-78
2022/10/23 03:18:06;;;;;;;;;;;11.70;81.70;;;;;;5085303;28;19985;-77
2022/10/23 03:20:32;;;;;;;;;;;11.70;81.70;;;;;;5064096;28;19977;-78
2022/10/23 03:22:57;;;;;;;;;;;11.70;81.70;;;;;;5082448;28;19917;-78
2022/10/23 03:25:23;;;;;;;;;;;11.80;81.70;;;;;;5083841;28;19931;-77
2022/10/23 03:27:50;;;;;;;;;;;11.70;81.70;;;;;;5064252;28;19975;-78
2022/10/23 03:30:15;;;;;;;;;;;11.70;81.70;;;;;;5083143;28;19970;-77
2022/10/23 03:32:41;;;;;;;;;;;11.70;81.70;;;;;;5086293;28;19912;-77
2022/10/23 03:35:06;;;;;;;;;;;11.70;81.70;;;;;;5061438;28;19948;-78
2022/10/23 03:37:32;;;;;;;;;;;11.70;81.80;;;;;;5081963;28;20600;-77
2022/10/23 03:39:57;;;;;;;;;;;11.70;81.80;;;;;;5068521;28;19975;-77
2022/10/23 03:42:23;;;;;;;;;;;11.70;81.80;;;;;;5057060;28;19916;-78
2022/10/23 03:44:49;;;;;;;;;;;11.70;81.80;;;;;;5068803;28;20326;-77
2022/10/23 03:47:14;;;;;;;;;;;11.70;81.80;;;;;;5067789;28;19916;-77
2022/10/23 03:49:39;;;;;;;;;;;11.70;81.80;;;;;;5086784;28;19916;-77
2022/10/23 03:52:05;;;;;;;;;;;11.70;81.80;;;;;;5061927;28;19921;-78
2022/10/23 03:54:32;;;;;;;;;;;11.70;81.80;;;;;;5066026;28;20482;-78
2022/10/23 03:56:58;;;;;;;;;;;11.70;81.80;;;;;;5063018;28;19974;-76
2022/10/23 03:59:23;;;;;;;;;;;11.70;81.80;;;;;;5063583;28;19946;-78
2022/10/23 04:01:49;;;;;;;;;;;11.60;81.70;;;;;;5067385;28;19923;-77
2022/10/23 04:04:17;;;;;;;;;;;11.70;81.80;;;;;;5063376;28;19939;-77
2022/10/23 04:06:43;;;;;;;;;;;11.70;81.80;;;;;;5068727;28;20503;-77
2022/10/23 04:09:08;;;;;;;;;;;11.70;81.80;;;;;;5064599;28;19931;-78
2022/10/23 04:11:33;;;;;;;;;;;11.60;81.70;;;;;;5063262;28;19931;-77
2022/10/23 04:13:59;;;;;;;;;;;11.70;82.00;;;;;;5062864;28;20660;-78
2022/10/23 04:16:24;;;;;;;;;;;11.60;81.80;;;;;;5079844;28;19920;-78
2022/10/23 04:18:50;;;;;;;;;;;11.60;81.80;;;;;;5079232;28;19939;-77
2022/10/23 04:21:15;;;;;;;;;;;11.60;81.80;;;;;;5065323;28;19928;-77
2022/10/23 04:23:41;;;;;;;;;;;11.60;81.80;;;;;;5066350;28;19951;-78
2022/10/23 04:26:06;;;;;;;;;;;11.60;81.80;;;;;;5082526;28;20170;-78
2022/10/23 04:28:32;;;;;;;;;;;11.60;81.80;;;;;;5069338;28;19978;-78
2022/10/23 04:30:57;;;;;;;;;;;11.60;81.80;;;;;;5079651;28;20372;-77
2022/10/23 04:33:23;;;;;;;;;;;11.60;81.80;;;;;;5066738;28;20439;-77
2022/10/23 04:35:48;;;;;;;;;;;11.60;81.80;;;;;;5058059;28;19920;-76
2022/10/23 04:38:17;;;;;;;;;;;11.60;81.80;;;;;;5051403;28;19920;-78
2022/10/23 04:40:42;;;;;;;;;;;11.60;81.80;;;;;;5050149;28;19917;-77
2022/10/23 04:43:08;;;;;;;;;;;11.60;81.80;;;;;;5061558;28;19932;-77
2022/10/23 04:45:33;;;;;;;;;;;11.60;81.80;;;;;;5065323;28;19924;-77
2022/10/23 04:47:59;;;;;;;;;;;11.60;81.90;;;;;;5059289;28;19917;-78
2022/10/23 04:50:24;;;;;;;;;;;11.60;81.90;;;;;;5066442;28;19927;-78
2022/10/23 04:52:53;;;;;;;;;;;11.60;82.00;;;;;;5064207;28;20208;-78
2022/10/23 04:55:19;;;;;;;;;;;11.60;82.00;;;;;;5068741;28;19998;-78
2022/10/23 04:57:45;;;;;;;;;;;11.60;81.90;;;;;;5074577;28;19940;-77
2022/10/23 05:03:15;;;;;;;;;;;11.60;82.00;;;;;;5069029;28;19927;-76
2022/10/23 05:05:41;;;;;;;;;;;11.60;81.90;;;;;;5062566;28;19935;-78
2022/10/23 05:08:06;;;;;;;;;;;11.60;82.00;;;;;;5073015;28;19913;-78
2022/10/23 05:10:32;;;;;;;;;;;11.50;81.90;;;;;;5059374;28;19932;-77
2022/10/23 05:12:57;;;;;;;;;;;11.50;81.90;;;;;;5075251;28;19927;-77
2022/10/23 05:15:23;;;;;;;;;;;11.50;81.90;;;;;;5072969;28;19920;-77
2022/10/23 05:17:49;;;;;;;;;;;11.50;81.90;;;;;;5081294;28;19915;-76
2022/10/23 05:20:17;;;;;;;;;;;11.50;81.90;;;;;;5082390;28;19928;-77
2022/10/23 05:22:42;;;;;;;;;;;11.50;81.90;;;;;;5076145;28;19936;-77
2022/10/23 05:25:08;;;;;;;;;;;11.50;82.00;;;;;;5086161;28;19930;-77
2022/10/23 05:27:33;;;;;;;;;;;11.50;82.00;;;;;;5074460;28;20294;-76
2022/10/23 05:29:59;;;;;;;;;;;11.50;82.00;;;;;;5076219;28;19900;-78
2022/10/23 05:32:24;;;;;;;;;;;11.50;82.00;;;;;;5073491;28;19927;-78
2022/10/23 05:34:50;;;;;;;;;;;11.50;82.00;;;;;;5074148;28;19917;-76
2022/10/23 05:37:16;;;;;;;;;;;11.50;82.00;;;;;;5075176;28;19977;-76
2022/10/23 05:39:41;;;;;;;;;;;11.50;82.00;;;;;;5070925;28;19994;-77
2022/10/23 05:42:07;;;;;;;;;;;11.50;82.00;;;;;;5072681;28;19940;-78
2022/10/23 05:44:32;;;;;;;;;;;11.50;82.00;;;;;;5092937;28;19934;-77
2022/10/23 05:46:58;;;;;;;;;;;11.50;82.00;;;;;;5076013;28;19978;-78
2022/10/23 05:49:26;;;;;;;;;;;11.50;82.00;;;;;;5068262;28;19924;-78
2022/10/23 05:51:52;;;;;;;;;;;11.50;82.00;;;;;;5074504;28;19920;-77
2022/10/23 05:54:17;;;;;;;;;;;11.40;82.00;;;;;;5080321;28;20172;-78
2022/10/23 05:56:43;;;;;;;;;;;11.50;82.10;;;;;;5092042;28;19928;-78
2022/10/23 05:59:09;;;;;;;;;;;11.50;82.10;;;;;;5071556;28;20350;-78
2022/10/23 06:01:34;;;;;;;;;;;11.40;82.00;;;;;;5091341;28;19931;-77
2022/10/23 06:04:00;;;;;;;;;;;11.50;82.00;;;;;;5071666;28;19915;-76
2022/10/23 06:06:25;;;;;;;;;;;11.40;82.00;;;;;;5093815;28;19927;-78
2022/10/23 06:08:51;;;;;;;;;;;11.40;82.00;;;;;;5088544;28;19920;-77
2022/10/23 06:11:16;;;;;;;;;;;11.50;82.00;;;;;;5089280;28;19928;-77
2022/10/23 06:13:42;;;;;;;;;;;11.50;82.10;;;;;;5085983;28;20009;-79
2022/10/23 06:16:08;;;;;;;;;;;11.40;82.00;;;;;;5090839;28;20625;-78
2022/10/23 06:18:34;;;;;;;;;;;11.40;82.10;;;;;;5070593;28;20452;-77
2022/10/23 06:21:00;;;;;;;;;;;11.50;82.10;;;;;;5086423;28;19921;-78
2022/10/23 06:23:25;;;;;;;;;;;11.50;82.10;;;;;;5088333;28;20094;-78
2022/10/23 06:25:52;;;;;;;;;;;11.40;82.10;;;;;;5068388;28;19927;-73
2022/10/23 06:28:17;;;;;;;;;;;11.40;82.10;;;;;;5081399;28;19920;-74
2022/10/23 06:30:43;;;;;;;;;;;11.50;82.10;;;;;;5077734;28;20020;-78
2022/10/23 06:33:11;;;;;;;;;;;11.40;82.10;;;;;;5076971;28;19923;-77
2022/10/23 06:35:36;;;;;;;;;;;11.40;82.10;;;;;;5076514;28;20273;-78
2022/10/23 06:38:02;;;;;;;;;;;11.50;82.10;;;;;;5089767;28;20605;-78
2022/10/23 06:40:27;;;;;;;;;;;11.50;82.20;;;;;;5091542;28;19916;-77
2022/10/23 06:42:54;;;;;;;;;;;11.50;82.20;;;;;;5074057;28;19923;-77
2022/10/23 06:45:19;;;;;;;;;;;11.50;82.10;;;;;;5095163;28;19927;-77
2022/10/23 06:47:45;;;;;;;;;;;11.50;82.10;;;;;;5095459;28;19916;-76
2022/10/23 06:50:10;;;;;;;;;;;11.50;82.10;;;;;;5053182;28;20163;-72
2022/10/23 06:52:36;;;;;;;;;;;11.50;82.10;;;;;;5080459;28;19969;-72
2022/10/23 06:55:01;;;;;;;;;;;11.50;82.10;;;;;;5059940;28;20369;-72
2022/10/23 06:57:27;;;;;;;;;;;11.50;82.10;;;;;;5061230;28;19935;-74
2022/10/23 06:59:52;;;;;;;;;;;11.50;82.10;;;;;;5061741;28;20415;-72
2022/10/23 07:02:18;;;;;;;;;;;11.50;82.10;;;;;;5075327;28;19925;-73
2022/10/23 07:04:43;;;;;;;;;;;11.50;82.10;;;;;;5054371;28;19969;-72
2022/10/23 07:07:09;;;;;;;;;;;11.60;82.10;;;;;;5062311;28;19980;-74
2022/10/23 07:09:35;;;;;;;;;;;11.50;82.10;;;;;;5082514;28;19932;-74
2022/10/23 07:12:00;;;;;;;;;;;11.50;82.10;;;;;;5073461;28;19960;-74
2022/10/23 07:14:25;;;;;;;;;;;11.60;82.10;;;;;;5066682;28;19962;-77
2022/10/23 07:16:51;;;;;;;;;;;11.60;82.10;;;;;;5089989;28;19924;-76
2022/10/23 07:19:17;;;;;;;;;;;11.60;82.10;;;;;;5076246;28;20397;-76
2022/10/23 07:21:42;;;;;;;;;;;11.60;82.10;;;;;;5076792;28;19912;-77
2022/10/23 07:24:08;;;;;;;;;;;11.60;82.10;;;;;;5070774;28;19924;-77
2022/10/23 07:26:33;;;;;;;;;;;11.60;82.10;;;;;;5073501;28;19966;-78
2022/10/23 07:28:59;;;;;;;;;;;11.70;82.10;;;;;;5093009;28;19919;-77
2022/10/23 07:31:24;;;;;;;;;;;11.70;82.10;;;;;;5073007;28;19920;-77
2022/10/23 07:33:50;;;;;;;;;;;11.70;82.10;;;;;;5094121;28;20906;-77
2022/10/23 07:36:16;;;;;;;;;;;11.70;82.10;;;;;;5081592;28;19931;-77
2022/10/23 07:38:41;;;;;;;;;;;11.80;82.10;;;;;;5087235;28;19947;-73
2022/10/23 07:41:20;;;;;;;;;;;;;;;;;;;;;
2022/10/23 07:43:46;;;;;;;;;;;11.80;82.00;;;;;;5093808;28;19980;-77
2022/10/23 07:46:11;;;;;;;;;;;11.80;81.90;;;;;;5083546;28;20300;-79
2022/10/23 07:48:37;;;;;;;;;;;11.90;82.00;;;;;;5072264;28;19916;-78
2022/10/23 07:51:07;;;;;;;;;;;11.90;82.00;;;;;;5094207;28;19916;-78
2022/10/23 07:53:32;;;;;;;;;;;11.90;81.90;;;;;;5084245;28;19989;-77
2022/10/23 07:55:58;;;;;;;;;;;12.00;82.00;;;;;;5069888;28;19913;-79
2022/10/23 07:58:24;;;;;;;;;;;12.00;81.90;;;;;;5095406;28;19924;-79
2022/10/23 08:00:57;;;;;;;;;;;12.00;81.90;;;;;;5095545;28;19944;-79
2022/10/23 08:03:29;;;;;;;;;;;12.00;81.90;;;;;;5082237;28;19930;-79
2022/10/23 08:05:55;;;;;;;;;;;12.10;81.90;;;;;;5074925;28;20438;-73
2022/10/23 08:08:21;;;;;;;;;;;12.20;81.90;;;;;;5085245;28;19912;-74
2022/10/23 08:10:47;;;;;;;;;;;12.20;81.90;;;;;;5084209;28;19930;-75
2022/10/23 08:13:15;;;;;;;;;;;12.30;81.90;;;;;;5079744;28;19983;-74
2022/10/23 08:15:40;;;;;;;;;;;12.40;81.80;;;;;;5080567;28;19916;-72
2022/10/23 08:18:06;;;;;;;;;;;12.50;81.70;;;;;;5073980;28;19924;-73
2022/10/23 08:20:33;;;;;;;;;;;12.60;81.70;;;;;;5082534;28;19955;-74
2022/10/23 08:22:58;;;;;;;;;;;12.60;81.50;;;;;;5080166;28;20380;-74
2022/10/23 08:25:24;;;;;;;;;;;12.70;81.50;;;;;;5077597;28;19927;-78
2022/10/23 08:27:49;;;;;;;;;;;12.80;81.50;;;;;;5083145;28;20353;-77
2022/10/23 08:30:15;;;;;;;;;;;12.90;81.50;;;;;;5080253;28;19924;-78
2022/10/23 08:32:41;;;;;;;;;;;13.00;81.40;;;;;;5095829;28;20211;-78
2022/10/23 08:35:06;;;;;;;;;;;13.10;81.30;;;;;;5080969;28;19982;-79
2022/10/23 08:37:32;;;;;;;;;;;13.30;81.30;;;;;;5066574;28;19923;-78
2022/10/23 08:39:57;;;;;;;;;;;13.30;81.10;;;;;;5071764;28;19973;-76
2022/10/23 08:42:24;;;;;;;;;;;13.50;81.10;;;;;;5091433;28;19928;-78
2022/10/23 08:44:58;;;;;;;;;;;13.60;81.00;;;;;;5097100;28;19920;-76
2022/10/23 08:47:25;;;;;;;;;;;13.70;80.90;;;;;;5071573;28;20030;-77
2022/10/23 08:49:52;;;;;;;;;;;13.80;80.80;;;;;;5098117;28;19920;-78
2022/10/23 08:52:37;;;;;;;;;;;13.90;80.70;;;;;;5080010;28;20016;-77
2022/10/23 08:55:05;;;;;;;;;;;14.00;80.50;;;;;;5087992;28;19915;-77
2022/10/23 08:57:34;;;;;;;;;;;14.10;81.20;;;;;;5099541;28;20040;-77
2022/10/23 09:00:03;;;;;;;;;;;14.20;80.30;;;;;;5098145;28;19912;-76
2022/10/23 09:02:37;;;;;;;;;;;14.30;80.30;;;;;;5094293;28;20639;-76
2022/10/23 09:05:02;;;;;;;;;;;14.30;80.20;;;;;;5083703;28;19974;-76
2022/10/23 09:07:40;;;;;;;;;;;14.40;80.20;;;;;;5097668;28;19979;-76
2022/10/23 09:10:11;;;;;;;;;;;14.50;80.10;;;;;;5092557;28;19924;-77
2022/10/23 09:12:38;;;;;;;;;;;14.50;80.10;;;;;;5097114;28;19924;-76
2022/10/23 09:15:12;;;;;;;;;;;14.70;80.10;;;;;;5104811;28;19923;-77
2022/10/23 09:17:39;;;;;;;;;;;14.70;80.00;;;;;;5080017;28;19962;-76
2022/10/23 09:20:19;;;;;;;;;;;14.80;79.90;;;;;;5099753;28;19925;-76
2022/10/23 09:22:44;;;;;;;;;;;14.80;79.80;;;;;;5085641;28;19924;-77
2022/10/23 09:25:10;;;;;;;;;;;15.00;79.80;;;;;;5067299;28;19912;-76
2022/10/23 09:27:36;;;;;;;;;;;15.00;79.80;;;;;;5068672;28;19973;-78
2022/10/23 09:30:02;;;;;;;;;;;15.10;79.70;;;;;;5081693;28;19951;-77
2022/10/23 09:32:31;;;;;;;;;;;15.20;79.70;;;;;;5099577;28;19983;-77
2022/10/23 09:34:56;;;;;;;;;;;15.30;79.60;;;;;;5100337;28;19950;-77
2022/10/23 09:37:25;;;;;;;;;;;15.40;79.60;;;;;;5085081;28;20569;-76
2022/10/23 09:40:00;;;;;;;;;;;15.40;79.40;;;;;;5094624;28;19922;-77
2022/10/23 09:42:26;;;;;;;;;;;15.50;79.40;;;;;;5090192;28;19920;-76
2022/10/23 09:44:52;;;;;;;;;;;15.70;79.40;;;;;;5093948;28;19916;-77
2022/10/23 09:47:19;;;;;;;;;;;15.80;79.30;;;;;;5082502;28;19916;-77
2022/10/23 09:49:55;;;;;;;;;;;15.90;79.20;;;;;;5082513;28;19920;-77
2022/10/23 09:52:21;;;;;;;;;;;16.00;79.00;;;;;;5077205;28;19971;-77
2022/10/23 09:54:55;;;;;;;;;;;16.20;79.00;;;;;;5070223;28;19923;-77
2022/10/23 09:57:26;;;;;;;;;;;16.30;78.90;;;;;;5078809;28;19925;-77
2022/10/23 09:59:52;;;;;;;;;;;16.40;78.80;;;;;;5073422;28;20463;-78
2022/10/23 10:02:31;;;;;;;;;;;16.60;78.70;;;;;;5069530;28;20369;-77
2022/10/23 10:04:56;;;;;;;;;;;16.70;78.50;;;;;;5071976;28;19951;-78
2022/10/23 10:07:23;;;;;;;;;;;16.90;78.40;;;;;;5070210;28;19924;-77
2022/10/23 10:09:49;;;;;;;;;;;17.00;78.20;;;;;;5064822;28;20053;-77
2022/10/23 10:12:33;;;;;;;;;;;17.10;78.10;;;;;;5081752;28;22829;-77
2022/10/23 10:14:59;;;;;;;;;;;17.20;78.00;;;;;;5072047;28;19978;-77
2022/10/23 10:17:27;;;;;;;;;;;17.30;78.00;;;;;;5084944;28;19925;-75
2022/10/23 10:20:05;;;;;;;;;;;17.30;77.80;;;;;;5077404;28;20008;-77
2022/10/23 10:22:49;;;;;;;;;;;17.40;77.80;;;;;;5083238;28;19912;-76
2022/10/23 10:25:20;;;;;;;;;;;17.50;77.80;;;;;;5079503;28;19917;-78
2022/10/23 10:28:06;;;;;;;;;;;17.50;77.60;;;;;;5065944;28;19966;-77
2022/10/23 10:30:58;;;;;;;;;;;17.60;77.60;;;;;;5082438;28;20353;-77
2022/10/23 10:33:35;;;;;;;;;;;17.70;77.50;;;;;;5053703;28;19925;-79
2022/10/23 10:36:10;;;;;;;;;;;17.80;77.50;;;;;;5079315;28;19905;-77
2022/10/23 10:38:46;;;;;;;;;;;18.00;77.50;;;;;;5071920;28;19929;-77
2022/10/23 10:41:18;;;;;;;;;;;18.10;77.30;;;;;;5086059;28;20491;-77
2022/10/23 10:43:59;;;;;;;;;;;18.20;77.20;;;;;;5063736;28;20435;-78
2022/10/23 10:46:43;;;;;;;;;;;18.40;77.10;;;;;;5081084;28;19917;-78
2022/10/23 10:49:38;;;;;;;;;;;18.50;76.90;;;;;;5087745;28;19924;-78
2022/10/23 10:52:06;;;;;;;;;;;18.70;76.80;;;;;;5047705;28;20483;-78
2022/10/23 10:54:38;;;;;;;;;;;18.90;76.60;;;;;;5071211;28;19916;-78
2022/10/23 10:57:04;;;;;;;;;;;19.00;76.50;;;;;;5070040;28;19925;-77
2022/10/23 10:59:30;;;;;;;;;;;19.10;77.10;;;;;;5077415;28;19941;-77
2022/10/23 11:01:57;;;;;;;;;;;19.20;76.30;;;;;;5071317;28;19948;-74
2022/10/23 11:04:45;;;;;;;;;;;19.30;76.20;;;;;;5081649;28;19924;-77
2022/10/23 11:07:11;;;;;;;;;;;19.40;76.10;;;;;;5076418;28;19920;-78
2022/10/23 11:09:37;;;;;;;;;;;19.50;75.90;;;;;;5075518;28;19979;-78
2022/10/23 11:12:03;;;;;;;;;;;19.50;75.70;;;;;;5077897;28;19944;-77
2022/10/23 11:14:30;;;;;;;;;;;19.60;75.70;;;;;;5074937;28;19924;-77
2022/10/23 11:17:19;;;;;;;;;;;19.60;75.70;;;;;;5079982;28;19928;-78
2022/10/23 11:19:44;;;;;;;;;;;19.70;75.80;;;;;;5069030;28;19928;-78
2022/10/23 11:22:22;;;;;;;;;;;19.70;75.60;;;;;;5076375;28;19920;-77
2022/10/23 11:25:11;;;;;;;;;;;19.70;75.60;;;;;;5066189;28;19930;-78
2022/10/23 11:27:40;;;;;;;;;;;19.80;75.60;;;;;;5044745;28;19920;-79
2022/10/23 11:30:20;;;;;;;;;;;19.70;75.60;;;;;;5087451;28;19920;-78
2022/10/23 11:33:01;;;;;;;;;;;19.80;75.60;;;;;;5070473;28;19931;-78
2022/10/23 11:35:29;;;;;;;;;;;19.70;75.50;;;;;;5095685;28;19943;-78
2022/10/23 11:37:58;;;;;;;;;;;19.80;75.60;;;;;;5075749;28;19916;-78
2022/10/23 11:40:24;;;;;;;;;;;19.80;75.60;;;;;;5061958;28;19912;-79
2022/10/23 11:42:50;;;;;;;;;;;19.90;75.60;;;;;;5074964;28;19931;-79
2022/10/23 11:45:28;;;;;;;;;;;19.90;75.60;;;;;;5083179;28;19981;-78
2022/10/23 11:47:55;;;;;;;;;;;19.90;75.50;;;;;;5068001;28;20300;-78
2022/10/23 11:50:26;;;;;;;;;;;19.90;75.50;;;;;;5072287;28;20403;-80
2022/10/23 11:52:53;;;;;;;;;;;19.90;75.40;;;;;;5074257;28;20023;-79
2022/10/23 11:55:20;;;;;;;;;;;19.90;75.40;;;;;;5089111;28;19923;-78
2022/10/23 11:57:56;;;;;;;;;;;19.90;75.50;;;;;;5075728;28;19920;-79
2022/10/23 12:00:22;;;;;;;;;;;19.90;75.50;;;;;;5074502;28;21276;-79
2022/10/23 12:02:51;;;;;;;;;;;19.90;75.40;;;;;;5079119;28;20436;-78
2022/10/23 12:05:22;;;;;;;;;;;20.00;75.50;;;;;;5096320;28;19924;-77
2022/10/23 12:07:52;;;;;;;;;;;20.00;75.40;;;;;;5070789;28;19951;-78
2022/10/23 12:10:29;;;;;;;;;;;20.00;75.40;;;;;;5073430;28;19924;-77
2022/10/23 12:12:55;;;;;;;;;;;20.00;75.50;;;;;;5080725;28;19923;-78
2022/10/23 12:15:21;;;;;;;;;;;20.10;75.50;;;;;;5086823;28;19924;-79
2022/10/23 12:17:49;;;;;;;;;;;20.10;75.50;;;;;;5087376;28;19927;-78
2022/10/23 12:20:21;;;;;;;;;;;20.20;75.50;;;;;;5077303;28;19974;-77
2022/10/23 12:22:50;;;;;;;;;;;20.40;76.20;;;;;;5072336;28;20045;-75
2022/10/23 12:25:27;;;;;;;;;;;20.60;75.20;;;;;;5074378;28;19916;-73
2022/10/23 12:27:53;;;;;;;;;;;20.70;75.10;;;;;;5058481;28;20007;-71
2022/10/23 12:30:18;;;;;;;;;;;20.80;74.80;;;;;;5076149;28;19999;-71
2022/10/23 12:32:43;;;;;;;;;;;20.90;74.60;;;;;;5081831;28;20404;-71
2022/10/23 12:35:18;;;;;;;;;;;21.00;74.50;;;;;;5074359;28;19984;-71
2022/10/23 12:37:44;;;;;;;;;;;21.00;74.40;;;;;;5082185;28;19942;-71
2022/10/23 12:40:09;;;;;;;;;;;21.10;74.50;;;;;;5059001;28;20365;-73
2022/10/23 12:42:35;;;;;;;;;;;21.10;74.30;;;;;;5045217;28;19943;-72
2022/10/23 12:45:01;;;;;;;;;;;21.20;74.30;;;;;;5055754;28;19977;-73
2022/10/23 12:47:27;;;;;;;;;;;21.20;74.20;;;;;;5061159;28;19916;-70
2022/10/23 12:49:52;;;;;;;;;;;21.20;74.30;;;;;;5076205;28;20270;-73
2022/10/23 12:52:19;;;;;;;;;;;21.20;74.20;;;;;;5040775;28;19948;-72
2022/10/23 12:54:45;;;;;;;;;;;21.20;74.30;;;;;;5055298;28;19924;-70
2022/10/23 12:57:21;;;;;;;;;;;21.20;74.30;;;;;;5059796;28;20408;-71
2022/10/23 12:59:46;;;;;;;;;;;21.20;74.20;;;;;;5043580;28;19956;-71
2022/10/23 13:02:12;;;;;;;;;;;21.30;74.30;;;;;;5040967;28;19972;-71
2022/10/23 13:04:38;;;;;;;;;;;21.30;74.30;;;;;;5057723;28;19963;-71
2022/10/23 13:07:03;;;;;;;;;;;21.30;74.20;;;;;;5043528;28;19972;-71
2022/10/23 13:09:29;;;;;;;;;;;21.30;74.10;;;;;;5048814;28;19969;-75
2022/10/23 13:11:55;;;;;;;;;;;21.30;74.10;;;;;;5088314;28;19920;-78
2022/10/23 13:14:31;;;;;;;;;;;21.30;74.20;;;;;;5072252;28;19920;-77
2022/10/23 13:17:00;;;;;;;;;;;21.30;74.30;;;;;;5073926;28;19920;-78
2022/10/23 13:19:27;;;;;;;;;;;21.30;74.20;;;;;;5065954;28;20019;-77
2022/10/23 13:21:52;;;;;;;;;;;21.30;74.30;;;;;;5066564;28;19925;-79
2022/10/23 13:24:18;;;;;;;;;;;21.30;74.20;;;;;;5069285;28;19935;-78
2022/10/23 13:26:44;;;;;;;;;;;21.40;74.30;;;;;;5061252;28;19926;-78
2022/10/23 13:29:16;;;;;;;;;;;21.40;74.20;;;;;;5066593;28;19920;-78
2022/10/23 13:31:41;;;;;;;;;;;21.40;74.10;;;;;;5052709;28;19917;-78
2022/10/23 13:34:13;;;;;;;;;;;21.50;74.10;;;;;;5047519;28;19920;-78
2022/10/23 13:36:47;;;;;;;;;;;21.50;74.10;;;;;;5049422;28;21795;-78
2022/10/23 13:39:13;;;;;;;;;;;21.50;74.10;;;;;;5066159;28;19994;-77
2022/10/23 13:41:43;;;;;;;;;;;21.50;74.00;;;;;;5067775;28;19986;-77
2022/10/23 13:44:09;;;;;;;;;;;21.50;74.00;;;;;;5068265;28;19924;-77
2022/10/23 13:46:34;;;;;;;;;;;21.60;73.90;;;;;;5074862;28;19924;-78
2022/10/23 13:49:00;;;;;;;;;;;21.60;73.90;;;;;;5084287;28;19917;-77
2022/10/23 13:51:26;;;;;;;;;;;21.70;73.90;;;;;;5074232;28;19917;-78
2022/10/23 13:53:52;;;;;;;;;;;21.70;73.80;;;;;;5076328;28;19924;-78
2022/10/23 13:56:18;;;;;;;;;;;21.70;73.80;;;;;;5072313;28;19923;-77
2022/10/23 13:58:44;;;;;;;;;;;21.80;73.70;;;;;;5058134;28;19917;-78
2022/10/23 14:01:28;;;;;;;;;;;21.90;73.70;;;;;;5050186;28;19925;-78
2022/10/23 14:03:54;;;;;;;;;;;21.90;73.70;;;;;;5072488;28;20339;-77
2022/10/23 14:06:20;;;;;;;;;;;21.90;74.40;;;;;;5066631;28;19916;-76
2022/10/23 14:08:45;;;;;;;;;;;22.00;73.50;;;;;;5079793;28;19917;-77
2022/10/23 14:11:11;;;;;;;;;;;22.10;73.50;;;;;;5095380;28;19917;-78
2022/10/23 14:13:36;;;;;;;;;;;22.10;73.40;;;;;;5068506;28;19924;-77
2022/10/23 14:16:02;;;;;;;;;;;22.10;73.40;;;;;;5069166;28;19929;-72
2022/10/23 14:18:27;;;;;;;;;;;22.10;73.30;;;;;;5053630;28;20392;-72
2022/10/23 14:20:55;;;;;;;;;;;22.20;73.30;;;;;;5078790;28;20511;-72
2022/10/23 14:23:20;;;;;;;;;;;22.30;73.20;;;;;;5056948;28;19920;-73
2022/10/23 14:25:46;;;;;;;;;;;22.30;73.20;;;;;;5060740;28;20403;-73